Time;durP1;ratioP1;P1;durP2;ratioP2;P2;SDS_P1;SDS_P2;PMS_P1;PMS_P2;Temp;Humidity;BMP_temperature;BMP_pressure;BME280_temperature;BME280_humidity;BME280_pressure;Samples;Min_cycle;Max_cycle;Signal;HPM_P1;HPM_P2
2023/04/02 00:02:21;;;;;;;1.60;0.60;;;;;;;10.21;46.52;94032.34;4950081;28;20232;-65
2023/04/02 00:05:28;;;;;;;0.60;0.60;;;;;;;10.14;46.70;94032.22;4936954;28;20233;-66
2023/04/02 00:08:16;;;;;;;0.63;0.63;;;;;;;10.18;46.46;94028.25;4947654;28;20228;-66
2023/04/02 00:10:58;;;;;;;1.07;0.70;;;;;;;10.13;45.92;94031.41;4938161;28;20235;-66
2023/04/02 00:13:32;;;;;;;1.27;0.43;;;;;;;9.87;46.26;94025.66;4933964;28;20228;-65
2023/04/02 00:15:59;;;;;;;0.70;0.60;;;;;;;9.75;46.59;94027.00;4945978;28;20227;-66
2023/04/02 00:18:26;;;;;;;1.03;0.60;;;;;;;9.87;46.11;94030.91;4952940;28;20221;-66
2023/04/02 00:21:23;;;;;;;1.10;0.60;;;;;;;9.85;46.23;94040.75;4949120;28;20267;-66
2023/04/02 00:23:49;;;;;;;0.50;0.50;;;;;;;9.74;46.21;94035.88;4952422;28;20208;-66
2023/04/02 00:26:38;;;;;;;0.73;0.60;;;;;;;9.65;46.63;94029.81;4952475;29;20213;-66
2023/04/02 00:29:05;;;;;;;1.17;0.60;;;;;;;9.69;46.47;94010.94;4950338;29;20284;-66
2023/04/02 00:31:32;;;;;;;1.13;0.57;;;;;;;9.63;46.32;94016.88;4936449;29;20232;-65
2023/04/02 00:33:59;;;;;;;0.93;0.63;;;;;;;9.71;46.33;94006.34;4925014;29;20228;-66
2023/04/02 00:36:29;;;;;;;0.55;0.50;;;;;;;9.94;45.89;94010.81;4933327;29;20237;-66
2023/04/02 00:38:57;;;;;;;0.50;0.50;;;;;;;10.18;45.50;94022.19;4933517;29;20232;-66
2023/04/02 00:41:28;;;;;;;0.95;0.60;;;;;;;10.19;44.89;94008.06;4949407;29;20205;-66
2023/04/02 00:43:56;;;;;;;0.93;0.50;;;;;;;10.11;44.97;94009.75;4949115;28;20234;-66
2023/04/02 00:46:28;;;;;;;2.27;0.60;;;;;;;10.02;45.23;94002.06;4932421;28;20257;-66
2023/04/02 00:49:37;;;;;;;0.90;0.50;;;;;;;9.92;45.33;94008.38;4948634;28;20724;-65
2023/04/02 00:52:15;;;;;;;1.48;0.50;;;;;;;9.93;45.17;94007.38;4909713;29;20645;-66
2023/04/02 00:54:51;;;;;;;1.53;0.70;;;;;;;10.02;44.84;94009.97;4916874;29;20237;-66
2023/04/02 00:57:24;;;;;;;1.37;0.60;;;;;;;10.06;44.97;94003.38;4933050;29;20239;-66
2023/04/02 01:00:06;;;;;;;0.57;0.43;;;;;;;9.95;45.22;93994.09;4918697;29;20194;-66
2023/04/02 01:02:37;;;;;;;0.97;0.50;;;;;;;10.09;44.71;94010.91;4934578;28;20200;-66
2023/04/02 01:05:14;;;;;;;0.40;0.40;;;;;;;9.82;45.35;94009.59;4945466;29;20197;-66
2023/04/02 01:08:07;;;;;;;1.17;0.77;;;;;;;9.88;45.13;94006.25;4933316;29;20239;-66
2023/04/02 01:10:38;;;;;;;2.47;0.70;;;;;;;9.89;45.16;94007.88;4933493;29;20225;-66
2023/04/02 01:13:20;;;;;;;1.30;0.60;;;;;;;9.91;45.32;94001.47;4932166;29;20224;-66
2023/04/02 01:15:57;;;;;;;0.80;0.50;;;;;;;10.06;45.18;94012.06;4930464;29;20317;-66
2023/04/02 01:18:45;;;;;;;0.90;0.60;;;;;;;10.26;44.66;94027.38;4949870;28;20232;-66
2023/04/02 01:21:20;;;;;;;0.80;0.50;;;;;;;10.12;44.85;94019.25;4934094;29;20240;-66
2023/04/02 01:24:01;;;;;;;0.85;0.47;;;;;;;10.13;45.00;94026.16;4935935;29;20279;-66
2023/04/02 01:27:10;;;;;;;0.63;0.60;;;;;;;10.20;44.92;94025.47;4935105;28;20212;-65
2023/04/02 01:29:45;;;;;;;2.10;1.97;;;;;;;10.10;48.06;94034.38;4992823;28;20291;-68
2023/04/02 01:32:14;;;;;;;2.03;1.93;;;;;;;10.08;48.68;94028.47;4993951;28;20199;-66
2023/04/02 01:34:43;;;;;;;2.50;2.10;;;;;;;10.02;49.08;94041.47;4998378;28;20231;-66
2023/04/02 01:37:36;;;;;;;4.40;2.20;;;;;;;9.87;50.05;94036.97;4993879;28;20272;-66
2023/04/02 01:40:11;;;;;;;2.63;2.27;;;;;;;9.80;50.55;94037.81;4989234;28;20616;-66
2023/04/02 01:42:58;;;;;;;2.90;2.30;;;;;;;9.68;51.01;94027.69;4991294;28;20305;-67
2023/04/02 01:45:24;;;;;;;3.90;2.50;;;;;;;9.48;51.37;94032.50;4996731;28;20237;-66
2023/04/02 01:47:51;;;;;;;2.40;2.20;;;;;;;9.48;51.54;94029.88;4991009;28;20194;-66
2023/04/02 01:50:19;;;;;;;2.23;2.13;;;;;;;9.44;51.66;94028.59;4993665;28;20223;-66
2023/04/02 01:52:47;;;;;;;2.70;2.27;;;;;;;9.44;51.71;94025.16;4991675;28;20280;-67
2023/04/02 01:55:16;;;;;;;3.17;2.40;;;;;;;9.47;51.74;94019.56;4990548;28;20223;-66
2023/04/02 01:57:46;;;;;;;6.37;2.30;;;;;;;9.41;51.97;94020.22;5008242;28;20223;-66
2023/04/02 02:00:16;;;;;;;4.93;2.40;;;;;;;9.42;51.73;94025.31;4992258;28;20226;-66
2023/04/02 02:02:45;;;;;;;2.50;2.00;;;;;;;9.45;51.20;94016.28;4988992;28;20190;-66
2023/04/02 02:05:17;;;;;;;2.63;1.83;;;;;;;9.39;51.12;94020.41;4971318;28;20183;-66
2023/04/02 02:07:43;;;;;;;1.90;1.80;;;;;;;9.42;51.05;94020.06;4974863;28;20572;-66
2023/04/02 02:10:28;;;;;;;2.10;1.70;;;;;;;9.46;51.32;94021.38;4971088;28;20231;-65
2023/04/02 02:12:53;;;;;;;2.90;1.83;;;;;;;9.41;51.66;94023.69;4965981;28;20220;-66
2023/04/02 02:15:22;;;;;;;1.80;1.60;;;;;;;9.34;51.03;94024.53;4970845;28;20229;-65
2023/04/02 02:17:48;;;;;;;2.17;1.47;;;;;;;9.19;51.31;94016.53;4970613;28;20204;-65
2023/04/02 02:20:15;;;;;;;1.90;1.60;;;;;;;9.33;50.92;94020.25;4972292;28;20184;-65
2023/04/02 02:22:46;;;;;;;2.07;1.70;;;;;;;9.31;51.25;94022.25;5000616;28;20216;-66
2023/04/02 02:25:19;;;;;;;2.40;1.60;;;;;;;9.18;51.35;94017.53;4968323;28;20224;-66
2023/04/02 02:27:54;;;;;;;2.37;1.80;;;;;;;9.22;51.32;94026.66;4996201;28;20344;-65
2023/04/02 02:30:25;;;;;;;1.73;1.20;;;;;;;9.19;50.73;94027.81;4983355;28;20246;-66
2023/04/02 02:33:00;;;;;;;2.97;1.43;;;;;;;9.30;50.84;94036.34;4968782;28;20239;-65
2023/04/02 02:35:37;;;;;;;2.63;1.70;;;;;;;9.30;51.51;94024.03;4969866;28;20180;-65
2023/04/02 02:38:42;;;;;;;3.47;1.60;;;;;;;9.26;51.82;94034.06;4968035;28;20556;-66
2023/04/02 02:41:32;;;;;;;2.20;1.97;;;;;;;9.27;51.89;94033.09;4953908;28;20244;-65
2023/04/02 02:44:09;;;;;;;3.17;2.30;;;;;;;9.17;52.53;94019.34;4973086;28;20238;-66
2023/04/02 02:46:43;;;;;;;2.93;2.57;;;;;;;9.12;52.84;94026.88;4957312;28;20232;-65
2023/04/02 02:49:16;;;;;;;2.93;2.73;;;;;;;9.02;53.27;94021.81;4969168;28;20216;-65
2023/04/02 02:51:56;;;;;;;2.87;2.53;;;;;;;9.04;53.19;94027.72;4967624;28;20232;-65
2023/04/02 02:54:21;;;;;;;4.57;2.70;;;;;;;8.90;53.83;94028.41;4951981;28;20243;-66
2023/04/02 02:56:55;;;;;;;3.27;2.53;;;;;;;8.93;53.81;94028.06;4965054;28;20221;-66
2023/04/02 02:59:22;;;;;;;3.07;2.77;;;;;;;8.95;53.82;94028.69;4959675;28;20191;-66
2023/04/02 03:01:48;;;;;;;4.17;3.03;;;;;;;8.95;54.02;94020.00;4960997;28;20238;-66
2023/04/02 03:04:21;;;;;;;3.20;2.50;;;;;;;8.93;53.85;94016.75;4958641;28;20228;-66
2023/04/02 03:06:51;;;;;;;2.70;2.50;;;;;;;8.91;54.14;94013.47;4965031;28;20312;-66
2023/04/02 03:10:02;;;;;;;3.00;2.70;;;;;;;8.99;53.94;94031.81;4952538;28;20270;-66
2023/04/02 03:12:41;;;;;;;3.57;2.90;;;;;;;8.86;54.66;94028.88;4975764;28;20843;-65
2023/04/02 03:15:44;;;;;;;3.90;3.07;;;;;;;8.95;54.56;94035.75;4940870;28;20229;-65
2023/04/02 03:18:16;;;;;;;3.53;2.90;;;;;;;8.78;54.92;94040.19;4964562;28;20243;-65
2023/04/02 03:20:57;;;;;;;3.33;3.03;;;;;;;8.79;54.92;94040.03;4980686;28;20196;-64
2023/04/02 03:23:38;;;;;;;4.10;3.00;;;;;;;8.79;54.90;94037.41;4968240;28;20188;-64
2023/04/02 03:26:13;;;;;;;5.20;3.30;;;;;;;8.74;55.09;94037.09;4971636;28;20224;-64
2023/04/02 03:28:45;;;;;;;3.63;3.30;;;;;;;8.75;55.16;94041.34;4962222;28;20314;-66
2023/04/02 03:31:26;;;;;;;4.20;3.30;;;;;;;8.64;55.92;94051.34;4970457;28;20649;-66
2023/04/02 03:34:24;;;;;;;4.17;3.43;;;;;;;8.55;55.84;94040.00;4970991;28;20223;-66
2023/04/02 03:37:00;;;;;;;5.60;3.40;;;;;;;8.56;55.81;94049.53;4956190;28;20231;-65
2023/04/02 03:39:31;;;;;;;5.17;3.33;;;;;;;8.60;55.96;94062.13;4970273;28;20224;-66
2023/04/02 03:42:24;;;;;;;6.80;3.37;;;;;;;8.48;56.44;94054.75;4968341;28;20243;-65
2023/04/02 03:45:02;;;;;;;5.90;3.33;;;;;;;8.43;56.35;94043.94;4969800;28;20224;-66
2023/04/02 03:47:36;;;;;;;3.87;3.47;;;;;;;8.47;56.68;94060.97;4965656;28;20207;-66
2023/04/02 03:50:06;;;;;;;5.17;3.83;;;;;;;8.39;56.53;94041.66;4970113;28;20315;-66
2023/04/02 03:52:35;;;;;;;5.97;3.80;;;;;;;8.33;56.98;94044.88;4968720;28;20220;-66
2023/04/02 03:55:08;;;;;;;6.20;3.80;;;;;;;8.30;57.14;94052.25;4965728;28;20482;-66
2023/04/02 03:58:06;;;;;;;4.97;3.63;;;;;;;8.29;57.06;94050.63;4962150;28;20691;-66
2023/04/02 04:00:38;;;;;;;4.40;3.13;;;;;;;8.21;57.19;94048.00;4969128;28;20221;-66
2023/04/02 04:03:11;;;;;;;3.80;3.43;;;;;;;8.31;57.12;94059.13;4941438;28;20225;-66
2023/04/02 04:05:47;;;;;;;5.53;3.70;;;;;;;8.27;56.97;94056.00;4934038;29;20204;-66
2023/04/02 04:08:20;;;;;;;4.07;3.37;;;;;;;8.33;56.80;94057.16;4950917;28;20221;-66
2023/04/02 04:10:51;;;;;;;6.53;3.60;;;;;;;8.23;57.28;94057.28;4937488;28;20236;-66
2023/04/02 04:13:25;;;;;;;6.43;4.00;;;;;;;8.25;57.21;94054.53;4936220;29;20286;-66
2023/04/02 04:15:58;;;;;;;4.67;3.53;;;;;;;8.20;57.50;94068.09;4959208;28;20309;-65
2023/04/02 04:19:20;;;;;;;5.10;4.10;;;;;;;8.16;57.21;94058.94;4969040;28;20760;-66
2023/04/02 04:21:46;;;;;;;5.67;3.73;;;;;;;8.25;57.56;94065.81;4919953;29;20230;-66
2023/04/02 04:24:38;;;;;;;4.70;3.83;;;;;;;8.21;57.55;94068.94;4907086;29;21105;-66
2023/04/02 04:27:20;;;;;;;4.93;3.67;;;;;;;8.10;57.66;94073.50;4906932;29;20233;-66
2023/04/02 04:30:41;;;;;;;4.87;4.13;;;;;;;8.07;57.82;94084.28;4914383;29;20300;-66
2023/04/02 04:33:24;;;;;;;4.73;4.20;;;;;;;8.08;57.77;94077.25;4914313;29;20238;-66
2023/04/02 04:36:02;;;;;;;6.57;4.10;;;;;;;8.06;57.63;94079.19;4908216;29;20198;-66
2023/04/02 04:38:54;;;;;;;5.43;3.87;;;;;;;8.13;57.62;94088.06;4883699;29;20199;-66
2023/04/02 04:41:25;;;;;;;4.07;3.30;;;;;;;8.11;57.64;94090.00;4880202;29;20277;-64
2023/04/02 04:43:57;;;;;;;5.03;3.30;;;;;;;8.21;56.77;94089.88;4881898;29;20233;-66
2023/04/02 04:46:41;;;;;;;4.00;3.50;;;;;;;8.20;56.92;94096.91;4895887;29;20223;-66
2023/04/02 04:49:29;;;;;;;6.30;3.30;;;;;;;8.26;56.61;94088.44;4901798;29;20227;-66
2023/04/02 04:52:06;;;;;;;4.77;3.57;;;;;;;8.27;56.52;94090.06;4881564;29;20295;-64
2023/04/02 04:54:37;;;;;;;4.70;3.80;;;;;;;8.24;56.67;94094.81;4914251;29;20223;-65
2023/04/02 04:57:15;;;;;;;6.33;3.57;;;;;;;8.18;57.24;94099.69;4896301;29;20262;-65
2023/04/02 04:59:48;;;;;;;5.07;3.50;;;;;;;8.31;57.03;94101.03;4894948;29;20314;-65
2023/04/02 05:02:25;;;;;;;4.00;3.57;;;;;;;8.37;56.49;94090.75;4879916;29;20305;-66
2023/04/02 05:04:52;;;;;;;6.00;3.17;;;;;;;8.38;56.57;94091.56;4873829;29;20304;-66
2023/04/02 05:07:22;;;;;;;3.67;3.00;;;;;;;8.33;56.82;94085.97;4896310;29;20323;-70
2023/04/02 05:09:56;;;;;;;4.43;3.53;;;;;;;8.45;56.52;94099.63;4981701;28;20237;-70
2023/04/02 05:12:37;;;;;;;3.53;3.23;;;;;;;8.31;57.12;94090.53;4976101;28;20247;-70
2023/04/02 05:15:14;;;;;;;4.03;3.20;;;;;;;8.36;57.00;94090.88;4978074;28;20220;-70
2023/04/02 05:17:50;;;;;;;5.00;3.20;;;;;;;8.34;56.73;94096.31;4983899;28;20196;-71
2023/04/02 05:20:48;;;;;;;6.33;3.80;;;;;;;8.47;56.64;94101.06;4970735;28;20214;-70
2023/04/02 05:23:24;;;;;;;3.37;2.90;;;;;;;8.56;56.14;94110.59;4966400;28;20226;-68
2023/04/02 05:25:59;;;;;;;4.87;3.23;;;;;;;8.67;55.66;94092.94;5003512;28;20338;-69
2023/04/02 05:28:58;;;;;;;4.10;3.27;;;;;;;8.79;55.49;94107.34;4970259;28;20223;-69
2023/04/02 05:31:35;;;;;;;5.60;3.17;;;;;;;8.84;55.45;94111.09;4971722;28;20220;-69
2023/04/02 05:34:01;;;;;;;3.87;3.47;;;;;;;8.97;55.14;94107.19;4966689;28;20220;-69
2023/04/02 05:36:29;;;;;;;4.10;3.70;;;;;;;8.99;55.21;94113.09;4986201;28;20227;-69
2023/04/02 05:38:57;;;;;;;5.20;3.67;;;;;;;9.11;54.55;94117.00;4969399;28;20228;-70
2023/04/02 05:41:37;;;;;;;5.77;3.63;;;;;;;9.18;54.74;94125.06;4956622;28;20179;-66
2023/04/02 05:44:05;;;;;;;5.67;3.70;;;;;;;9.22;54.45;94113.22;4969529;28;20222;-67
2023/04/02 05:46:36;;;;;;;6.43;3.80;;;;;;;9.31;53.62;94116.69;4982383;28;20224;-65
2023/04/02 05:49:08;;;;;;;5.10;3.27;;;;;;;9.25;53.70;94115.56;4970636;28;20216;-66
2023/04/02 05:51:43;;;;;;;3.60;3.30;;;;;;;9.38;53.34;94115.88;4968674;28;20231;-67
2023/04/02 05:54:36;;;;;;;4.43;3.23;;;;;;;8.95;55.10;94119.63;4967346;28;20223;-65
2023/04/02 05:57:16;;;;;;;4.43;3.03;;;;;;;9.06;53.90;94127.16;4934024;29;20267;-67
2023/04/02 06:00:07;;;;;;;4.20;3.70;;;;;;;9.30;53.30;94117.66;4949244;28;20189;-66
2023/04/02 06:02:38;;;;;;;5.57;3.97;;;;;;;9.38;52.84;94125.50;4950452;28;20219;-66
2023/04/02 06:05:11;;;;;;;4.90;3.60;;;;;;;9.56;52.72;94128.75;4947304;28;20212;-66
2023/04/02 06:07:58;;;;;;;4.00;3.60;;;;;;;9.70;52.12;94130.72;4933607;29;20236;-67
2023/04/02 06:10:28;;;;;;;5.13;3.97;;;;;;;9.73;52.31;94124.31;4931433;29;20221;-68
2023/04/02 06:13:02;;;;;;;6.80;3.63;;;;;;;9.83;51.73;94131.97;4931021;29;20248;-66
2023/04/02 06:15:28;;;;;;;4.50;3.27;;;;;;;9.99;51.19;94133.75;4935432;29;20223;-66
2023/04/02 06:18:18;;;;;;;5.47;3.65;;;;;;;9.83;51.92;94135.41;4937944;29;20228;-66
2023/04/02 06:20:44;;;;;;;4.70;3.38;;;;;;;9.94;51.50;94129.81;4946134;28;20189;-64
2023/04/02 06:23:29;;;;;;;4.30;3.80;;;;;;;10.13;51.04;94136.50;4950758;29;20248;-67
2023/04/02 06:26:06;;;;;;;5.30;3.73;;;;;;;10.13;51.05;94123.34;4924292;29;20230;-67
2023/04/02 06:28:52;;;;;;;5.50;4.13;;;;;;;10.20;50.97;94128.72;4933571;29;20221;-67
2023/04/02 06:31:26;;;;;;;3.88;3.58;;;;;;;10.36;50.47;94130.50;4929720;29;20226;-68
2023/04/02 06:33:53;;;;;;;5.30;4.32;;;;;;;10.41;50.07;94128.16;4950924;28;20324;-68
2023/04/02 06:36:19;;;;;;;5.05;4.18;;;;;;;10.36;50.24;94128.69;4968378;28;20220;-68
2023/04/02 06:38:47;;;;;;;4.60;3.20;;;;;;;10.42;50.10;94134.25;4968317;28;20192;-66
2023/04/02 06:41:21;;;;;;;6.00;3.77;;;;;;;10.40;50.18;94123.06;4995232;28;20184;-68
2023/04/02 06:43:56;;;;;;;5.72;3.72;;;;;;;10.50;50.01;94132.38;5005035;28;20231;-67
2023/04/02 06:46:38;;;;;;;4.97;3.63;;;;;;;10.57;49.84;94129.88;4973420;28;20598;-67
2023/04/02 06:49:42;;;;;;;4.80;3.40;;;;;;;10.62;49.55;94124.94;4946661;28;20312;-68
2023/04/02 06:52:22;;;;;;;7.13;3.53;;;;;;;10.66;49.21;94136.72;4957111;28;20227;-68
2023/04/02 06:54:48;;;;;;;5.97;4.30;;;;;;;10.64;49.39;94135.25;4983872;28;21898;-68
2023/04/02 06:57:13;;;;;;;7.70;4.00;;;;;;;10.73;49.22;94142.13;4970802;28;20227;-67
2023/04/02 06:59:39;;;;;;;6.40;4.20;;;;;;;10.82;49.17;94133.16;4978379;28;20191;-67
2023/04/02 07:02:21;;;;;;;4.57;4.13;;;;;;;10.92;48.82;94139.03;4962619;28;20262;-67
2023/04/02 07:04:47;;;;;;;5.63;4.57;;;;;;;10.85;48.86;94139.91;4966403;28;20238;-67
2023/04/02 07:07:13;;;;;;;5.53;4.10;;;;;;;10.93;49.00;94139.84;4964665;28;20270;-66
2023/04/02 07:09:38;;;;;;;7.10;4.55;;;;;;;10.99;49.01;94158.38;4982267;28;20287;-67
2023/04/02 07:12:10;;;;;;;5.93;4.68;;;;;;;11.03;48.66;94153.56;4960565;28;20282;-68
2023/04/02 07:14:36;;;;;;;7.70;4.85;;;;;;;11.02;48.92;94150.13;4966394;28;20206;-68
2023/04/02 07:17:01;;;;;;;6.15;4.05;;;;;;;10.91;48.71;94150.56;4971833;28;20192;-68
2023/04/02 07:19:27;;;;;;;6.07;4.80;;;;;;;11.00;48.75;94153.94;4962484;28;20223;-67
2023/04/02 07:21:52;;;;;;;6.13;4.65;;;;;;;11.08;48.45;94151.25;4972188;28;20247;-67
2023/04/02 07:24:18;;;;;;;6.68;4.70;;;;;;;11.17;48.64;94158.09;4971689;28;20226;-67
2023/04/02 07:26:43;;;;;;;7.32;4.43;;;;;;;11.27;48.44;94157.84;4968906;28;20211;-67
2023/04/02 07:29:14;;;;;;;7.32;4.25;;;;;;;11.38;48.06;94153.97;4977874;28;20199;-69
2023/04/02 07:31:40;;;;;;;6.82;4.07;;;;;;;11.33;47.66;94154.50;4962370;28;20240;-69
2023/04/02 07:34:07;;;;;;;3.78;3.40;;;;;;;11.44;47.40;94158.50;4962362;28;20243;-71
2023/04/02 07:36:32;;;;;;;4.57;2.75;;;;;;;11.56;47.05;94165.00;4961489;28;20220;-70
2023/04/02 07:38:58;;;;;;;3.08;2.33;;;;;;;11.66;47.06;94160.28;4959002;28;20220;-70
2023/04/02 07:41:25;;;;;;;2.65;2.13;;;;;;;11.85;45.98;94163.41;4957188;28;20184;-70
2023/04/02 07:43:51;;;;;;;3.95;2.15;;;;;;;11.96;45.36;94172.72;4960809;28;20386;-70
2023/04/02 07:46:18;;;;;;;2.63;1.80;;;;;;;11.88;45.46;94171.78;4956709;28;20323;-70
2023/04/02 07:48:45;;;;;;;3.23;1.70;;;;;;;11.93;44.26;94171.25;4968743;28;20231;-69
2023/04/02 07:51:19;;;;;;;3.08;1.65;;;;;;;12.01;44.16;94151.91;4963977;28;20315;-70
2023/04/02 07:53:48;;;;;;;2.85;1.80;;;;;;;12.22;44.24;94156.47;4962921;28;20243;-70
2023/04/02 07:56:15;;;;;;;2.92;1.85;;;;;;;12.36;44.08;94151.16;4965525;28;20176;-70
2023/04/02 07:58:41;;;;;;;3.38;1.95;;;;;;;12.63;43.54;94150.66;4964579;28;20232;-70
2023/04/02 08:01:15;;;;;;;1.30;1.20;;;;;;;12.54;42.18;94157.88;4962563;28;20263;-70
2023/04/02 08:03:41;;;;;;;1.88;1.20;;;;;;;12.66;41.35;94153.75;4961614;28;20223;-69
2023/04/02 08:06:06;;;;;;;3.38;1.30;;;;;;;12.57;41.67;94158.31;4961164;28;20232;-70
2023/04/02 08:08:32;;;;;;;1.15;0.85;;;;;;;12.67;40.66;94165.94;4990498;28;20196;-67
2023/04/02 08:10:57;;;;;;;1.50;0.82;;;;;;;12.68;40.62;94161.47;4969943;28;20539;-69
2023/04/02 08:13:22;;;;;;;0.70;0.70;;;;;;;12.83;40.55;94169.34;4968127;28;20466;-69
2023/04/02 08:15:48;;;;;;;1.65;0.70;;;;;;;13.02;40.24;94163.47;4956496;28;20227;-69
2023/04/02 08:18:13;;;;;;;1.63;0.90;;;;;;;13.29;39.66;94158.50;4964994;28;20223;-70
2023/04/02 08:20:39;;;;;;;1.95;0.70;;;;;;;13.33;39.42;94157.09;4965559;28;20192;-70
2023/04/02 08:23:11;;;;;;;0.60;0.60;;;;;;;13.36;38.75;94162.00;4962830;28;20267;-69
2023/04/02 08:25:36;;;;;;;2.25;0.80;;;;;;;13.44;37.96;94164.50;4959181;28;20244;-69
2023/04/02 08:28:02;;;;;;;0.95;0.70;;;;;;;13.55;37.26;94166.66;4965034;28;20655;-70
2023/04/02 08:30:27;;;;;;;0.80;0.60;;;;;;;13.46;37.23;94173.06;4950807;28;20228;-69
2023/04/02 08:32:52;;;;;;;1.52;0.60;;;;;;;13.29;38.16;94182.25;4962316;28;20224;-69
2023/04/02 08:35:18;;;;;;;1.30;0.70;;;;;;;13.26;38.26;94172.88;4966649;28;20212;-69
2023/04/02 08:37:44;;;;;;;1.48;0.70;;;;;;;13.39;37.77;94173.00;4963422;28;20221;-69
2023/04/02 08:40:37;;;;;;;1.00;0.65;;;;;;;13.46;37.88;94171.22;4967454;28;20243;-69
2023/04/02 08:43:21;;;;;;;1.75;0.80;;;;;;;13.50;37.55;94158.47;4960505;28;20225;-68
2023/04/02 08:46:05;;;;;;;2.35;0.85;;;;;;;13.72;36.52;94182.22;4995130;28;20234;-68
2023/04/02 08:48:33;;;;;;;2.58;0.82;;;;;;;13.68;36.35;94171.19;4997263;28;20368;-68
2023/04/02 08:50:59;;;;;;;1.33;0.90;;;;;;;13.64;36.63;94173.41;4968324;28;20233;-71
2023/04/02 08:53:30;;;;;;;1.05;0.65;;;;;;;13.61;37.86;94171.16;4966304;28;20242;-69
2023/04/02 08:56:19;;;;;;;1.20;1.10;;;;;;;13.83;37.42;94168.47;4967962;28;20216;-70
2023/04/02 08:58:53;;;;;;;0.90;0.77;;;;;;;13.90;37.14;94170.16;4965234;28;20274;-67
2023/04/02 09:01:30;;;;;;;1.92;0.80;;;;;;;13.97;36.33;94167.53;4961428;28;21014;-69
2023/04/02 09:03:58;;;;;;;1.02;0.80;;;;;;;14.11;36.42;94168.44;4964612;28;20242;-68
2023/04/02 09:06:23;;;;;;;1.83;0.90;;;;;;;14.23;35.39;94169.53;4965009;28;20224;-68
2023/04/02 09:08:52;;;;;;;1.52;0.73;;;;;;;14.15;36.14;94168.88;4964071;28;20180;-67
2023/04/02 09:11:21;;;;;;;1.63;0.80;;;;;;;14.21;36.17;94166.28;4965537;28;20211;-69
2023/04/02 09:13:53;;;;;;;0.50;0.50;;;;;;;13.99;36.27;94165.53;4964204;28;20232;-68
2023/04/02 09:16:21;;;;;;;0.80;0.60;;;;;;;14.11;35.08;94164.00;4964896;28;20300;-68
2023/04/02 09:18:50;;;;;;;0.93;0.80;;;;;;;14.32;33.97;94167.56;4966468;28;20228;-69
2023/04/02 09:21:41;;;;;;;0.70;0.70;;;;;;;14.32;33.51;94176.28;4992841;28;20284;-72
2023/04/02 09:24:11;;;;;;;0.80;0.70;;;;;;;14.59;33.37;94170.34;4963082;28;20316;-69
2023/04/02 09:26:36;;;;;;;1.13;0.90;;;;;;;14.65;33.64;94172.22;4956086;28;20209;-71
2023/04/02 09:29:31;;;;;;;1.00;0.90;;;;;;;14.72;33.62;94159.81;4962019;28;20184;-70
2023/04/02 09:32:18;;;;;;;1.75;0.98;;;;;;;14.85;33.73;94159.06;4926923;28;20233;-71
2023/04/02 09:34:43;;;;;;;0.80;0.70;;;;;;;15.18;33.46;94167.06;4946383;28;20559;-71
2023/04/02 09:37:17;;;;;;;0.47;0.45;;;;;;;15.29;32.97;94165.66;4922910;28;20272;-70
2023/04/02 09:39:43;;;;;;;1.45;0.80;;;;;;;15.29;32.60;94161.22;4961807;28;20418;-70
2023/04/02 09:42:27;;;;;;;0.82;0.57;;;;;;;15.30;32.38;94160.19;4926524;29;20296;-72
2023/04/02 09:45:21;;;;;;;0.77;0.75;;;;;;;15.44;32.50;94155.72;4930537;28;20229;-73
2023/04/02 09:47:47;;;;;;;1.10;0.90;;;;;;;15.59;32.18;94150.22;4961704;28;21060;-71
2023/04/02 09:50:19;;;;;;;0.98;0.88;;;;;;;15.86;32.44;94151.88;4966357;28;20200;-72
2023/04/02 09:52:45;;;;;;;1.50;0.73;;;;;;;16.11;32.25;94135.31;4947199;28;20217;-70
2023/04/02 09:55:17;;;;;;;0.93;0.82;;;;;;;16.17;31.10;94147.78;4933142;28;20232;-70
2023/04/02 09:57:45;;;;;;;0.85;0.77;;;;;;;16.02;32.04;94149.84;4947219;28;20244;-69
2023/04/02 10:00:26;;;;;;;1.23;0.60;;;;;;;16.19;30.77;94147.53;4965511;28;20231;-70
2023/04/02 10:03:03;;;;;;;0.75;0.75;;;;;;;16.04;31.61;94150.44;4947169;28;20259;-70
2023/04/02 10:05:30;;;;;;;1.35;0.95;;;;;;;16.04;31.53;94142.50;4949525;28;20242;-71
2023/04/02 10:08:07;;;;;;;0.90;0.73;;;;;;;15.93;30.98;94143.09;4948067;28;20223;-70
2023/04/02 10:10:43;;;;;;;1.05;0.80;;;;;;;16.15;30.66;94136.53;4963931;28;20228;-70
2023/04/02 10:13:47;;;;;;;0.57;0.57;;;;;;;16.26;30.12;94143.84;4964934;28;20228;-71
2023/04/02 10:16:18;;;;;;;1.50;0.80;;;;;;;16.14;30.44;94134.09;4961482;28;20232;-70
2023/04/02 10:18:53;;;;;;;0.55;0.55;;;;;;;16.13;30.02;94124.50;4989743;28;20232;-70
2023/04/02 10:21:34;;;;;;;0.73;0.70;;;;;;;16.16;30.40;94126.75;4972729;28;20298;-71
2023/04/02 10:24:01;;;;;;;0.82;0.80;;;;;;;16.24;30.07;94121.22;4965228;28;20298;-70
2023/04/02 10:26:48;;;;;;;0.52;0.52;;;;;;;16.34;29.67;94108.34;4993048;28;20271;-70
2023/04/02 10:29:51;;;;;;;1.10;0.50;;;;;;;16.52;29.99;94110.31;4989407;28;20716;-71
2023/04/02 10:32:23;;;;;;;1.02;0.93;;;;;;;16.58;30.62;94124.59;4989460;28;20364;-70
2023/04/02 10:35:01;;;;;;;1.15;0.63;;;;;;;16.53;31.20;94123.34;4961965;28;20224;-70
2023/04/02 10:37:30;;;;;;;0.95;0.85;;;;;;;16.13;32.47;94129.81;4975589;28;20255;-70
2023/04/02 10:40:09;;;;;;;1.13;1.00;;;;;;;15.76;33.05;94127.63;4991998;28;20224;-70
2023/04/02 10:42:51;;;;;;;1.05;0.95;;;;;;;16.05;32.87;94139.63;4991804;28;20312;-70
2023/04/02 10:45:29;;;;;;;1.38;0.63;;;;;;;16.30;32.58;94123.88;4994849;28;20227;-70
2023/04/02 10:48:41;;;;;;;1.17;0.85;;;;;;;16.16;33.40;94132.84;4958931;28;20323;-70
2023/04/02 10:51:33;;;;;;;0.70;0.70;;;;;;;16.35;32.76;94117.09;4954066;28;20284;-71
2023/04/02 10:54:20;;;;;;;0.70;0.60;;;;;;;16.72;31.63;94126.16;4952738;28;20231;-70
2023/04/02 10:56:48;;;;;;;1.85;0.80;;;;;;;16.18;32.82;94114.09;4985248;28;20188;-70
2023/04/02 10:59:22;;;;;;;0.68;0.57;;;;;;;16.36;32.79;94116.06;4949242;28;20203;-70
2023/04/02 11:01:50;;;;;;;0.93;0.88;;;;;;;16.51;32.29;94109.47;4982293;28;21138;-70
2023/04/02 11:04:15;;;;;;;1.20;0.80;;;;;;;16.68;31.68;94109.00;4962765;28;20216;-70
2023/04/02 11:06:46;;;;;;;1.00;0.75;;;;;;;16.85;31.33;94109.38;4983708;28;20228;-70
2023/04/02 11:09:20;;;;;;;1.15;0.88;;;;;;;17.15;31.38;94121.03;4962825;28;20326;-70
2023/04/02 11:11:49;;;;;;;1.92;0.70;;;;;;;17.43;30.57;94106.56;4956663;28;20199;-70
2023/04/02 11:14:21;;;;;;;0.75;0.63;;;;;;;17.04;30.90;94111.09;4953257;28;20255;-70
2023/04/02 11:16:50;;;;;;;1.00;0.90;;;;;;;17.23;30.98;94121.81;4968218;28;20215;-70
2023/04/02 11:19:16;;;;;;;0.60;0.57;;;;;;;16.60;30.93;94115.38;4947089;28;20320;-70
2023/04/02 11:21:47;;;;;;;1.88;0.85;;;;;;;16.81;31.07;94114.28;4982090;28;20307;-70
2023/04/02 11:24:23;;;;;;;1.30;0.88;;;;;;;17.11;30.68;94105.75;4966132;28;20238;-70
2023/04/02 11:26:50;;;;;;;0.90;0.70;;;;;;;17.22;30.82;94112.22;4953311;28;20239;-71
2023/04/02 11:29:23;;;;;;;1.40;0.80;;;;;;;17.41;30.63;94113.91;4964629;28;20188;-70
2023/04/02 11:32:10;;;;;;;1.75;0.68;;;;;;;17.36;29.99;94106.59;4964397;28;20243;-70
2023/04/02 11:34:48;;;;;;;0.95;0.90;;;;;;;17.61;29.98;94103.97;4995915;28;20227;-71
2023/04/02 11:37:41;;;;;;;0.98;0.75;;;;;;;17.93;29.65;94103.88;4960247;28;20220;-70
2023/04/02 11:40:10;;;;;;;0.93;0.70;;;;;;;17.79;29.90;94097.88;4990257;28;20310;-70
2023/04/02 11:42:42;;;;;;;1.55;0.90;;;;;;;17.79;29.62;94097.06;4957268;28;20231;-71
2023/04/02 11:45:20;;;;;;;0.60;0.60;;;;;;;17.87;28.99;94090.66;4990341;28;20251;-70
2023/04/02 11:48:11;;;;;;;1.42;1.15;;;;;;;17.95;29.03;94093.84;4955852;28;20212;-70
2023/04/02 11:50:42;;;;;;;0.65;0.55;;;;;;;17.78;29.34;94084.78;4923500;28;20242;-70
2023/04/02 11:53:10;;;;;;;0.88;0.60;;;;;;;17.96;28.99;94090.16;4926686;29;20216;-70
2023/04/02 11:55:37;;;;;;;1.25;1.00;;;;;;;18.07;29.08;94097.41;4921950;28;20221;-70
2023/04/02 11:58:21;;;;;;;1.13;0.95;;;;;;;17.80;28.72;94096.88;4943066;28;20315;-71
2023/04/02 12:01:17;;;;;;;0.52;0.52;;;;;;;17.74;28.72;94084.41;4918314;29;20221;-71
2023/04/02 12:03:57;;;;;;;1.30;0.70;;;;;;;17.61;29.17;94090.66;4889865;29;20225;-71
2023/04/02 12:07:00;;;;;;;0.88;0.75;;;;;;;17.77;28.89;94094.59;4912163;29;20224;-70
2023/04/02 12:09:46;;;;;;;2.20;0.73;;;;;;;17.69;29.00;94091.41;4927341;29;20258;-70
2023/04/02 12:12:31;;;;;;;0.75;0.70;;;;;;;17.15;29.84;94089.16;4925200;29;20566;-70
2023/04/02 12:14:59;;;;;;;0.60;0.60;;;;;;;17.42;30.07;94086.31;4927398;29;20243;-69
2023/04/02 12:17:27;;;;;;;0.80;0.60;;;;;;;17.95;29.27;94077.09;4944761;28;20185;-70